sensor_id;sensor_type;location;lat;lon;timestamp;pressure;altitude;pressure_sealevel;temperature;humidity
32324;BME280;25666;44.350;9.222;2023-04-04T00:01:47;101179.19;;;10.65;100.00
32324;BME280;25666;44.350;9.222;2023-04-04T00:04:13;101185.34;;;10.70;100.00
32324;BME280;25666;44.350;9.222;2023-04-04T00:06:39;101180.25;;;10.72;100.00
32324;BME280;25666;44.350;9.222;2023-04-04T00:09:09;101183.50;;;10.74;100.00
32324;BME280;25666;44.350;9.222;2023-04-04T00:11:34;101188.00;;;10.67;100.00
32324;BME280;25666;44.350;9.222;2023-04-04T00:14:00;101183.16;;;10.76;100.00
32324;BME280;25666;44.350;9.222;2023-04-04T00:16:26;101188.97;;;10.71;100.00
32324;BME280;25666;44.350;9.222;2023-04-04T00:18:52;101200.44;;;10.49;100.00
32324;BME280;25666;44.350;9.222;2023-04-04T00:21:17;101207.66;;;10.62;100.00
32324;BME280;25666;44.350;9.222;2023-04-04T00:23:43;101205.38;;;10.64;100.00
32324;BME280;25666;44.350;9.222;2023-04-04T00:26:09;101205.13;;;10.28;100.00
32324;BME280;25666;44.350;9.222;2023-04-04T00:28:34;101203.47;;;10.35;100.00
32324;BME280;25666;44.350;9.222;2023-04-04T00:31:00;101210.84;;;10.31;100.00
32324;BME280;25666;44.350;9.222;2023-04-04T00:33:26;101215.72;;;10.34;100.00
32324;BME280;25666;44.350;9.222;2023-04-04T00:35:51;101215.50;;;10.48;100.00
32324;BME280;25666;44.350;9.222;2023-04-04T00:38:17;101225.34;;;10.45;100.00
32324;BME280;25666;44.350;9.222;2023-04-04T00:40:44;101221.47;;;10.58;100.00
32324;BME280;25666;44.350;9.222;2023-04-04T00:43:13;101217.53;;;10.59;100.00
32324;BME280;25666;44.350;9.222;2023-04-04T00:45:38;101222.19;;;10.47;100.00
32324;BME280;25666;44.350;9.222;2023-04-04T00:48:05;101213.38;;;10.24;100.00
32324;BME280;25666;44.350;9.222;2023-04-04T00:50:31;101215.88;;;10.38;100.00
32324;BME280;25666;44.350;9.222;2023-04-04T00:52:57;101210.38;;;10.50;100.00
32324;BME280;25666;44.350;9.222;2023-04-04T00:55:23;101207.34;;;10.43;100.00
32324;BME280;25666;44.350;9.222;2023-04-04T00:57:48;101209.59;;;10.49;100.00
32324;BME280;25666;44.350;9.222;2023-04-04T01:00:14;101209.38;;;10.54;100.00
32324;BME280;25666;44.350;9.222;2023-04-04T01:02:40;101207.41;;;10.55;100.00
32324;BME280;25666;44.350;9.222;2023-04-04T01:05:06;101210.13;;;10.63;100.00
32324;BME280;25666;44.350;9.222;2023-04-04T01:07:34;101203.41;;;10.64;100.00
32324;BME280;25666;44.350;9.222;2023-04-04T01:10:00;101205.16;;;10.69;100.00
32324;BME280;25666;44.350;9.222;2023-04-04T01:12:28;101207.03;;;10.65;100.00
32324;BME280;25666;44.350;9.222;2023-04-04T01:14:54;101204.09;;;10.61;100.00
32324;BME280;25666;44.350;9.222;2023-04-04T01:17:20;101209.22;;;10.71;100.00
32324;BME280;25666;44.350;9.222;2023-04-04T01:20:00;101206.00;;;10.69;100.00
32324;BME280;25666;44.350;9.222;2023-04-04T01:22:30;101215.38;;;10.65;100.00
32324;BME280;25666;44.350;9.222;2023-04-04T01:24:59;101210.28;;;10.67;100.00
32324;BME280;25666;44.350;9.222;2023-04-04T01:27:27;101212.09;;;10.63;100.00
32324;BME280;25666;44.350;9.222;2023-04-04T01:29:57;101214.59;;;10.56;100.00
32324;BME280;25666;44.350;9.222;2023-04-04T01:32:55;101220.81;;;10.61;100.00
32324;BME280;25666;44.350;9.222;2023-04-04T01:40:48;101225.34;;;10.45;100.00
32324;BME280;25666;44.350;9.222;2023-04-04T01:43:18;101224.44;;;10.53;100.00
32324;BME280;25666;44.350;9.222;2023-04-04T01:45:44;101221.34;;;10.26;100.00
32324;BME280;25666;44.350;9.222;2023-04-04T01:48:12;101234.75;;;10.32;100.00
32324;BME280;25666;44.350;9.222;2023-04-04T01:50:42;101233.69;;;10.45;100.00
32324;BME280;25666;44.350;9.222;2023-04-04T01:53:07;101236.41;;;10.54;100.00
32324;BME280;25666;44.350;9.222;2023-04-04T01:55:33;101240.31;;;10.53;100.00
32324;BME280;25666;44.350;9.222;2023-04-04T01:57:59;101232.94;;;10.57;100.00
32324;BME280;25666;44.350;9.222;2023-04-04T02:00:24;101235.28;;;10.46;100.00
32324;BME280;25666;44.350;9.222;2023-04-04T02:02:50;101232.50;;;10.46;100.00
32324;BME280;25666;44.350;9.222;2023-04-04T02:05:15;101231.03;;;10.49;100.00
32324;BME280;25666;44.350;9.222;2023-04-04T02:07:46;101241.16;;;10.53;100.00
32324;BME280;25666;44.350;9.222;2023-04-04T02:10:20;101234.03;;;10.64;100.00
32324;BME280;25666;44.350;9.222;2023-04-04T02:12:45;101231.72;;;10.66;100.00
32324;BME280;25666;44.350;9.222;2023-04-04T02:15:11;101236.81;;;10.64;100.00
32324;BME280;25666;44.350;9.222;2023-04-04T02:17:39;101234.66;;;10.70;100.00
32324;BME280;25666;44.350;9.222;2023-04-04T02:20:06;101238.72;;;10.72;100.00
32324;BME280;25666;44.350;9.222;2023-04-04T02:22:32;101235.72;;;10.77;100.00
32324;BME280;25666;44.350;9.222;2023-04-04T02:24:58;101238.31;;;10.83;100.00
32324;BME280;25666;44.350;9.222;2023-04-04T02:27:24;101237.78;;;10.89;100.00
32324;BME280;25666;44.350;9.222;2023-04-04T02:29:50;101233.22;;;11.05;100.00
32324;BME280;25666;44.350;9.222;2023-04-04T02:32:15;101240.25;;;11.23;96.43
32324;BME280;25666;44.350;9.222;2023-04-04T02:34:41;101243.84;;;11.24;86.67
32324;BME280;25666;44.350;9.222;2023-04-04T02:37:06;101246.31;;;11.38;70.42
32324;BME280;25666;44.350;9.222;2023-04-04T02:39:33;101256.34;;;11.51;85.90
32324;BME280;25666;44.350;9.222;2023-04-04T02:42:01;101239.44;;;11.56;64.42
32324;BME280;25666;44.350;9.222;2023-04-04T02:44:27;101240.00;;;11.61;63.21
32324;BME280;25666;44.350;9.222;2023-04-04T02:46:53;101235.25;;;11.62;77.96
32324;BME280;25666;44.350;9.222;2023-04-04T02:49:22;101240.00;;;11.61;51.54
32324;BME280;25666;44.350;9.222;2023-04-04T02:51:51;101237.00;;;11.66;50.94
32324;BME280;25666;44.350;9.222;2023-04-04T02:54:19;101239.09;;;11.69;57.12
32324;BME280;25666;44.350;9.222;2023-04-04T02:56:46;101236.53;;;11.64;50.91
32324;BME280;25666;44.350;9.222;2023-04-04T02:59:11;101238.78;;;11.71;50.81
32324;BME280;25666;44.350;9.222;2023-04-04T03:01:37;101231.88;;;11.68;49.62
32324;BME280;25666;44.350;9.222;2023-04-04T03:04:03;101226.88;;;11.62;53.91
32324;BME280;25666;44.350;9.222;2023-04-04T03:06:33;101236.16;;;11.54;50.72
32324;BME280;25666;44.350;9.222;2023-04-04T03:08:59;101226.97;;;11.65;48.26
32324;BME280;25666;44.350;9.222;2023-04-04T03:11:26;101235.13;;;11.58;48.41
32324;BME280;25666;44.350;9.222;2023-04-04T03:13:52;101239.88;;;11.58;48.45
32324;BME280;25666;44.350;9.222;2023-04-04T03:16:26;101231.84;;;11.56;48.59
32324;BME280;25666;44.350;9.222;2023-04-04T03:18:55;101242.53;;;11.54;50.65
32324;BME280;25666;44.350;9.222;2023-04-04T03:21:20;101233.59;;;11.49;50.46
32324;BME280;25666;44.350;9.222;2023-04-04T03:23:46;101234.75;;;11.48;49.51
32324;BME280;25666;44.350;9.222;2023-04-04T03:26:12;101229.16;;;11.48;50.62
32324;BME280;25666;44.350;9.222;2023-04-04T03:28:38;101230.81;;;11.49;51.95
32324;BME280;25666;44.350;9.222;2023-04-04T03:31:04;101239.03;;;11.45;51.39
32324;BME280;25666;44.350;9.222;2023-04-04T03:33:34;101237.22;;;11.28;52.53
32324;BME280;25666;44.350;9.222;2023-04-04T03:36:01;101232.44;;;11.17;51.66
32324;BME280;25666;44.350;9.222;2023-04-04T03:38:26;101240.56;;;11.22;50.01
32324;BME280;25666;44.350;9.222;2023-04-04T03:41:02;101234.88;;;11.18;50.57
32324;BME280;25666;44.350;9.222;2023-04-04T03:43:29;101242.53;;;11.21;51.18
32324;BME280;25666;44.350;9.222;2023-04-04T03:46:00;101243.13;;;11.15;49.44
32324;BME280;25666;44.350;9.222;2023-04-04T03:48:26;101243.34;;;11.22;47.33
32324;BME280;25666;44.350;9.222;2023-04-04T03:50:52;101236.97;;;11.21;50.14
32324;BME280;25666;44.350;9.222;2023-04-04T03:53:18;101243.44;;;11.13;48.30
32324;BME280;25666;44.350;9.222;2023-04-04T03:55:43;101237.66;;;11.18;50.20
32324;BME280;25666;44.350;9.222;2023-04-04T03:58:09;101238.56;;;11.10;46.32
32324;BME280;25666;44.350;9.222;2023-04-04T04:00:34;101233.81;;;11.11;53.70
32324;BME280;25666;44.350;9.222;2023-04-04T04:03:01;101239.56;;;11.06;52.40
32324;BME280;25666;44.350;9.222;2023-04-04T04:05:27;101238.28;;;11.03;47.80
32324;BME280;25666;44.350;9.222;2023-04-04T04:07:52;101247.19;;;10.97;47.63
32324;BME280;25666;44.350;9.222;2023-04-04T04:10:18;101242.94;;;10.99;46.06
32324;BME280;25666;44.350;9.222;2023-04-04T04:12:43;101245.81;;;11.03;46.78
32324;BME280;25666;44.350;9.222;2023-04-04T04:15:09;101243.72;;;11.00;47.49
32324;BME280;25666;44.350;9.222;2023-04-04T04:17:38;101243.19;;;11.06;46.20
32324;BME280;25666;44.350;9.222;2023-04-04T04:20:06;101240.94;;;11.00;48.86
32324;BME280;25666;44.350;9.222;2023-04-04T04:22:36;101244.63;;;10.92;48.04
32324;BME280;25666;44.350;9.222;2023-04-04T04:25:07;101251.47;;;10.94;48.49
32324;BME280;25666;44.350;9.222;2023-04-04T04:27:32;101241.63;;;10.97;48.87
32324;BME280;25666;44.350;9.222;2023-04-04T04:29:58;101245.91;;;10.94;50.51
32324;BME280;25666;44.350;9.222;2023-04-04T04:32:24;101245.91;;;10.94;63.55
32324;BME280;25666;44.350;9.222;2023-04-04T04:34:52;101249.25;;;10.88;61.95
32324;BME280;25666;44.350;9.222;2023-04-04T04:37:22;101237.72;;;10.77;78.62
32324;BME280;25666;44.350;9.222;2023-04-04T04:39:52;101252.78;;;10.76;78.44
32324;BME280;25666;44.350;9.222;2023-04-04T04:42:32;101246.38;;;10.75;79.44
32324;BME280;25666;44.350;9.222;2023-04-04T04:45:00;101257.06;;;10.73;77.18
32324;BME280;25666;44.350;9.222;2023-04-04T04:47:26;101256.44;;;10.68;55.49
32324;BME280;25666;44.350;9.222;2023-04-04T04:49:54;101245.94;;;10.73;57.54
32324;BME280;25666;44.350;9.222;2023-04-04T04:52:30;101250.00;;;10.76;54.09
32324;BME280;25666;44.350;9.222;2023-04-04T04:54:56;101263.31;;;10.70;62.12
32324;BME280;25666;44.350;9.222;2023-04-04T04:57:24;101263.16;;;10.67;75.33
32324;BME280;25666;44.350;9.222;2023-04-04T04:59:49;101259.25;;;10.68;70.64
32324;BME280;25666;44.350;9.222;2023-04-04T05:02:16;101260.53;;;10.70;67.86
32324;BME280;25666;44.350;9.222;2023-04-04T05:04:44;101267.59;;;10.68;63.36
32324;BME280;25666;44.350;9.222;2023-04-04T05:07:12;101268.06;;;10.70;80.97
32324;BME280;25666;44.350;9.222;2023-04-04T05:09:41;101262.06;;;10.59;90.55
32324;BME280;25666;44.350;9.222;2023-04-04T05:12:07;101274.44;;;10.70;63.75
32324;BME280;25666;44.350;9.222;2023-04-04T05:14:42;101277.38;;;10.74;77.25
32324;BME280;25666;44.350;9.222;2023-04-04T05:17:09;101269.94;;;10.78;69.37
32324;BME280;25666;44.350;9.222;2023-04-04T05:19:35;101275.25;;;10.71;76.46
32324;BME280;25666;44.350;9.222;2023-04-04T05:22:01;101267.53;;;10.77;75.46
32324;BME280;25666;44.350;9.222;2023-04-04T05:24:35;101277.31;;;10.83;76.08
32324;BME280;25666;44.350;9.222;2023-04-04T05:27:04;101283.69;;;10.83;75.59
32324;BME280;25666;44.350;9.222;2023-04-04T05:29:37;101278.13;;;10.83;59.87
32324;BME280;25666;44.350;9.222;2023-04-04T05:32:03;101281.94;;;10.99;56.47
32324;BME280;25666;44.350;9.222;2023-04-04T05:34:30;101291.50;;;10.90;54.45
32324;BME280;25666;44.350;9.222;2023-04-04T05:36:57;101285.44;;;10.88;44.68
32324;BME280;25666;44.350;9.222;2023-04-04T05:39:24;101280.81;;;11.12;44.62
32324;BME280;25666;44.350;9.222;2023-04-04T05:42:04;101293.63;;;10.93;44.66
32324;BME280;25666;44.350;9.222;2023-04-04T05:47:09;101294.59;;;11.09;42.91
32324;BME280;25666;44.350;9.222;2023-04-04T05:55:29;101293.16;;;15.29;34.91
32324;BME280;25666;44.350;9.222;2023-04-04T05:57:56;101300.91;;;15.36;33.32
32324;BME280;25666;44.350;9.222;2023-04-04T06:00:31;101299.69;;;17.52;31.32
32324;BME280;25666;44.350;9.222;2023-04-04T06:03:04;101304.16;;;18.78;29.52
32324;BME280;25666;44.350;9.222;2023-04-04T06:05:29;101310.41;;;18.50;28.76
32324;BME280;25666;44.350;9.222;2023-04-04T06:07:55;101303.19;;;20.32;27.22
32324;BME280;25666;44.350;9.222;2023-04-04T06:10:22;101308.56;;;19.40;27.46
32324;BME280;25666;44.350;9.222;2023-04-04T06:12:48;101299.53;;;20.67;25.29
32324;BME280;25666;44.350;9.222;2023-04-04T06:15:13;101301.47;;;22.06;24.95
32324;BME280;25666;44.350;9.222;2023-04-04T06:17:41;101306.91;;;21.76;24.31
32324;BME280;25666;44.350;9.222;2023-04-04T06:20:07;101307.06;;;24.04;23.43
32324;BME280;25666;44.350;9.222;2023-04-04T06:22:33;101308.09;;;24.20;22.69
32324;BME280;25666;44.350;9.222;2023-04-04T06:24:59;101307.41;;;24.09;21.65
32324;BME280;25666;44.350;9.222;2023-04-04T06:27:26;101315.75;;;23.29;21.99
32324;BME280;25666;44.350;9.222;2023-04-04T06:29:51;101305.03;;;23.77;22.09
32324;BME280;25666;44.350;9.222;2023-04-04T06:32:19;101317.31;;;23.71;22.83
32324;BME280;25666;44.350;9.222;2023-04-04T06:34:46;101311.59;;;23.37;21.82
32324;BME280;25666;44.350;9.222;2023-04-04T06:37:13;101321.34;;;24.00;21.39
32324;BME280;25666;44.350;9.222;2023-04-04T06:39:47;101311.59;;;22.07;23.08
32324;BME280;25666;44.350;9.222;2023-04-04T06:42:19;101310.44;;;21.98;23.81
32324;BME280;25666;44.350;9.222;2023-04-04T06:44:48;101306.13;;;24.40;21.80
32324;BME280;25666;44.350;9.222;2023-04-04T06:47:13;101303.03;;;24.78;21.72
32324;BME280;25666;44.350;9.222;2023-04-04T06:49:39;101299.06;;;25.58;21.71
32324;BME280;25666;44.350;9.222;2023-04-04T06:52:04;101303.00;;;25.64;22.53
32324;BME280;25666;44.350;9.222;2023-04-04T06:54:30;101307.91;;;26.51;21.89
32324;BME280;25666;44.350;9.222;2023-04-04T06:56:55;101305.72;;;27.32;20.26
32324;BME280;25666;44.350;9.222;2023-04-04T06:59:21;101300.13;;;26.68;20.80
32324;BME280;25666;44.350;9.222;2023-04-04T07:01:47;101300.16;;;26.51;21.02
32324;BME280;25666;44.350;9.222;2023-04-04T07:04:12;101300.09;;;26.03;20.79
32324;BME280;25666;44.350;9.222;2023-04-04T07:06:38;101294.44;;;26.51;21.34
32324;BME280;25666;44.350;9.222;2023-04-04T07:09:03;101296.47;;;26.99;20.18
32324;BME280;25666;44.350;9.222;2023-04-04T07:11:29;101300.94;;;26.20;20.46
32324;BME280;25666;44.350;9.222;2023-04-04T07:13:55;101287.56;;;26.49;20.14
32324;BME280;25666;44.350;9.222;2023-04-04T07:16:21;101291.81;;;25.73;20.24
32324;BME280;25666;44.350;9.222;2023-04-04T07:18:47;101286.53;;;24.92;21.15
32324;BME280;25666;44.350;9.222;2023-04-04T07:21:12;101298.41;;;22.86;22.65
32324;BME280;25666;44.350;9.222;2023-04-04T07:23:38;101290.84;;;21.48;23.63
32324;BME280;25666;44.350;9.222;2023-04-04T07:26:03;101305.59;;;17.40;26.27
32324;BME280;25666;44.350;9.222;2023-04-04T07:28:29;101306.13;;;16.40;27.75
32324;BME280;25666;44.350;9.222;2023-04-04T07:30:59;101303.38;;;15.98;27.87
32324;BME280;25666;44.350;9.222;2023-04-04T07:33:26;101297.88;;;15.64;29.67
32324;BME280;25666;44.350;9.222;2023-04-04T07:35:52;101304.84;;;13.83;31.17
32324;BME280;25666;44.350;9.222;2023-04-04T07:38:18;101306.25;;;14.36;30.71
32324;BME280;25666;44.350;9.222;2023-04-04T07:40:43;101306.47;;;14.78;30.33
32324;BME280;25666;44.350;9.222;2023-04-04T07:43:09;101323.47;;;13.64;30.79
32324;BME280;25666;44.350;9.222;2023-04-04T07:45:35;101321.84;;;13.35;31.85
32324;BME280;25666;44.350;9.222;2023-04-04T07:48:00;101332.84;;;13.28;31.99
32324;BME280;25666;44.350;9.222;2023-04-04T07:50:26;101308.72;;;13.51;31.69
32324;BME280;25666;44.350;9.222;2023-04-04T07:52:51;101316.13;;;13.44;31.53
32324;BME280;25666;44.350;9.222;2023-04-04T07:55:18;101324.19;;;13.33;32.46
32324;BME280;25666;44.350;9.222;2023-04-04T07:57:44;101323.63;;;13.55;32.74
32324;BME280;25666;44.350;9.222;2023-04-04T08:00:10;101321.66;;;13.56;32.68
32324;BME280;25666;44.350;9.222;2023-04-04T08:02:39;101322.53;;;13.60;31.86
32324;BME280;25666;44.350;9.222;2023-04-04T08:05:04;101314.97;;;13.32;32.05
32324;BME280;25666;44.350;9.222;2023-04-04T08:07:30;101327.31;;;12.55;33.79
32324;BME280;25666;44.350;9.222;2023-04-04T08:09:56;101322.28;;;13.09;33.57
32324;BME280;25666;44.350;9.222;2023-04-04T08:12:21;101316.75;;;13.25;34.95
32324;BME280;25666;44.350;9.222;2023-04-04T08:14:47;101333.28;;;13.30;33.94
32324;BME280;25666;44.350;9.222;2023-04-04T08:17:12;101342.25;;;13.23;34.07
32324;BME280;25666;44.350;9.222;2023-04-04T08:19:43;101326.91;;;13.17;34.42
32324;BME280;25666;44.350;9.222;2023-04-04T08:22:08;101342.03;;;13.16;34.03
32324;BME280;25666;44.350;9.222;2023-04-04T08:24:34;101349.69;;;13.31;34.13
32324;BME280;25666;44.350;9.222;2023-04-04T08:27:01;101345.13;;;13.39;34.03
32324;BME280;25666;44.350;9.222;2023-04-04T08:29:26;101354.25;;;13.24;34.50
32324;BME280;25666;44.350;9.222;2023-04-04T08:31:53;101352.91;;;12.94;33.88
32324;BME280;25666;44.350;9.222;2023-04-04T08:34:18;101342.41;;;12.90;32.98
32324;BME280;25666;44.350;9.222;2023-04-04T08:36:45;101341.81;;;13.21;33.50
32324;BME280;25666;44.350;9.222;2023-04-04T08:39:10;101369.75;;;12.97;33.56
32324;BME280;25666;44.350;9.222;2023-04-04T08:41:36;101358.59;;;12.97;33.58
32324;BME280;25666;44.350;9.222;2023-04-04T08:44:04;101379.44;;;13.00;33.81
32324;BME280;25666;44.350;9.222;2023-04-04T08:46:31;101361.88;;;13.11;32.70
32324;BME280;25666;44.350;9.222;2023-04-04T08:48:57;101368.25;;;12.87;32.43
32324;BME280;25666;44.350;9.222;2023-04-04T08:51:24;101355.69;;;12.94;32.66
32324;BME280;25666;44.350;9.222;2023-04-04T08:53:51;101349.97;;;13.02;32.78
32324;BME280;25666;44.350;9.222;2023-04-04T08:56:18;101370.25;;;12.99;33.41
32324;BME280;25666;44.350;9.222;2023-04-04T09:04:03;101371.41;;;12.98;31.52
32324;BME280;25666;44.350;9.222;2023-04-04T09:06:29;101374.53;;;12.84;31.76
32324;BME280;25666;44.350;9.222;2023-04-04T09:08:56;101365.81;;;12.86;31.69
32324;BME280;25666;44.350;9.222;2023-04-04T09:11:24;101361.50;;;13.13;32.22
32324;BME280;25666;44.350;9.222;2023-04-04T09:13:51;101378.28;;;12.76;31.02
32324;BME280;25666;44.350;9.222;2023-04-04T09:16:18;101363.25;;;12.93;31.09
32324;BME280;25666;44.350;9.222;2023-04-04T09:18:44;101371.53;;;12.89;31.26
32324;BME280;25666;44.350;9.222;2023-04-04T09:21:10;101377.69;;;12.83;30.60
32324;BME280;25666;44.350;9.222;2023-04-04T09:23:36;101392.81;;;12.94;30.98
32324;BME280;25666;44.350;9.222;2023-04-04T09:26:03;101362.22;;;12.85;30.48
32324;BME280;25666;44.350;9.222;2023-04-04T09:28:30;101359.06;;;13.11;30.67
32324;BME280;25666;44.350;9.222;2023-04-04T09:30:55;101369.41;;;13.23;31.50
32324;BME280;25666;44.350;9.222;2023-04-04T09:33:25;101364.97;;;13.22;31.13
32324;BME280;25666;44.350;9.222;2023-04-04T09:35:54;101381.06;;;13.01;30.20
32324;BME280;25666;44.350;9.222;2023-04-04T09:38:22;101365.09;;;13.01;30.64
32324;BME280;25666;44.350;9.222;2023-04-04T09:40:48;101349.13;;;13.26;31.40
32324;BME280;25666;44.350;9.222;2023-04-04T09:43:14;101355.19;;;13.28;31.14
32324;BME280;25666;44.350;9.222;2023-04-04T09:45:44;101357.78;;;13.21;30.95
32324;BME280;25666;44.350;9.222;2023-04-04T09:48:10;101370.34;;;13.27;30.35
32324;BME280;25666;44.350;9.222;2023-04-04T09:50:37;101363.78;;;13.35;30.63
32324;BME280;25666;44.350;9.222;2023-04-04T09:53:15;101363.44;;;13.36;30.75
32324;BME280;25666;44.350;9.222;2023-04-04T09:55:41;101347.84;;;13.23;30.50
32324;BME280;25666;44.350;9.222;2023-04-04T09:58:26;101355.09;;;13.24;30.09
32324;BME280;25666;44.350;9.222;2023-04-04T10:01:03;101350.59;;;13.35;30.83
32324;BME280;25666;44.350;9.222;2023-04-04T10:03:35;101353.78;;;13.34;29.88
32324;BME280;25666;44.350;9.222;2023-04-04T10:06:08;101362.78;;;13.55;30.23
32324;BME280;25666;44.350;9.222;2023-04-04T10:08:40;101354.34;;;13.39;29.55
32324;BME280;25666;44.350;9.222;2023-04-04T10:11:07;101347.72;;;13.32;29.32
32324;BME280;25666;44.350;9.222;2023-04-04T10:13:35;101350.00;;;13.42;29.59
32324;BME280;25666;44.350;9.222;2023-04-04T10:16:03;101349.50;;;13.52;29.82
32324;BME280;25666;44.350;9.222;2023-04-04T10:18:30;101353.69;;;13.58;30.34
32324;BME280;25666;44.350;9.222;2023-04-04T10:20:57;101364.53;;;13.48;29.15
32324;BME280;25666;44.350;9.222;2023-04-04T10:23:24;101352.09;;;13.45;29.49
32324;BME280;25666;44.350;9.222;2023-04-04T10:25:56;101359.63;;;13.57;29.90
32324;BME280;25666;44.350;9.222;2023-04-04T10:28:22;101361.84;;;13.51;29.31
32324;BME280;25666;44.350;9.222;2023-04-04T10:30:54;101372.81;;;13.56;28.81
32324;BME280;25666;44.350;9.222;2023-04-04T10:33:30;101352.91;;;13.46;28.42
32324;BME280;25666;44.350;9.222;2023-04-04T10:36:00;101348.19;;;13.62;28.81
32324;BME280;25666;44.350;9.222;2023-04-04T10:38:30;101342.28;;;13.79;30.72
32324;BME280;25666;44.350;9.222;2023-04-04T10:41:00;101346.50;;;13.73;29.30
32324;BME280;25666;44.350;9.222;2023-04-04T10:43:31;101350.00;;;13.70;28.75
32324;BME280;25666;44.350;9.222;2023-04-04T10:46:07;101343.16;;;13.67;28.53
32324;BME280;25666;44.350;9.222;2023-04-04T10:48:36;101336.19;;;13.61;29.42
32324;BME280;25666;44.350;9.222;2023-04-04T10:51:03;101337.25;;;13.84;28.86
32324;BME280;25666;44.350;9.222;2023-04-04T10:53:29;101332.00;;;13.83;28.92
32324;BME280;25666;44.350;9.222;2023-04-04T10:55:58;101337.69;;;13.86;29.02
32324;BME280;25666;44.350;9.222;2023-04-04T10:58:24;101339.88;;;13.93;28.42
32324;BME280;25666;44.350;9.222;2023-04-04T11:00:51;101335.34;;;13.88;27.93
32324;BME280;25666;44.350;9.222;2023-04-04T11:03:19;101333.00;;;13.90;28.56
32324;BME280;25666;44.350;9.222;2023-04-04T11:05:45;101330.38;;;13.98;28.22
32324;BME280;25666;44.350;9.222;2023-04-04T11:08:18;101339.41;;;13.91;27.48
32324;BME280;25666;44.350;9.222;2023-04-04T11:10:48;101335.75;;;14.03;29.45
32324;BME280;25666;44.350;9.222;2023-04-04T11:16:03;101322.28;;;14.08;28.25
32324;BME280;25666;44.350;9.222;2023-04-04T11:21:01;101322.59;;;14.34;26.03
32324;BME280;25666;44.350;9.222;2023-04-04T11:23:59;101317.44;;;14.36;25.85
32324;BME280;25666;44.350;9.222;2023-04-04T11:31:31;101315.56;;;14.40;25.84
32324;BME280;25666;44.350;9.222;2023-04-04T11:39:12;101305.53;;;14.39;28.72
32324;BME280;25666;44.350;9.222;2023-04-04T11:44:09;101301.56;;;14.40;28.63
32324;BME280;25666;44.350;9.222;2023-04-04T11:46:35;101303.53;;;14.40;27.95
32324;BME280;25666;44.350;9.222;2023-04-04T11:49:02;101307.59;;;14.42;25.13
32324;BME280;25666;44.350;9.222;2023-04-04T11:51:27;101297.19;;;14.27;24.44
32324;BME280;25666;44.350;9.222;2023-04-04T11:53:54;101288.63;;;14.36;24.80
32324;BME280;25666;44.350;9.222;2023-04-04T11:56:20;101301.16;;;14.42;24.93
32324;BME280;25666;44.350;9.222;2023-04-04T11:58:50;101295.94;;;14.25;23.95
32324;BME280;25666;44.350;9.222;2023-04-04T12:01:15;101292.66;;;14.23;24.10
32324;BME280;25666;44.350;9.222;2023-04-04T12:03:41;101282.28;;;14.23;23.98
32324;BME280;25666;44.350;9.222;2023-04-04T12:06:07;101281.03;;;14.21;23.89
32324;BME280;25666;44.350;9.222;2023-04-04T12:08:32;101278.66;;;14.23;24.19
32324;BME280;25666;44.350;9.222;2023-04-04T12:11:03;101273.78;;;14.20;24.03
32324;BME280;25666;44.350;9.222;2023-04-04T12:13:31;101275.78;;;14.35;24.39
32324;BME280;25666;44.350;9.222;2023-04-04T12:15:57;101278.84;;;14.45;25.12
32324;BME280;25666;44.350;9.222;2023-04-04T12:18:22;101275.31;;;14.48;24.48
32324;BME280;25666;44.350;9.222;2023-04-04T12:20:50;101277.13;;;14.41;24.17
32324;BME280;25666;44.350;9.222;2023-04-04T12:23:16;101272.31;;;14.57;24.91
32324;BME280;25666;44.350;9.222;2023-04-04T12:25:42;101266.75;;;14.41;24.42
32324;BME280;25666;44.350;9.222;2023-04-04T12:28:09;101259.94;;;14.58;24.23
32324;BME280;25666;44.350;9.222;2023-04-04T12:30:37;101254.13;;;14.67;25.25
32324;BME280;25666;44.350;9.222;2023-04-04T12:33:03;101254.50;;;14.65;24.52
32324;BME280;25666;44.350;9.222;2023-04-04T12:35:29;101271.56;;;14.76;23.97
32324;BME280;25666;44.350;9.222;2023-04-04T12:37:59;101283.19;;;14.59;23.95
32324;BME280;25666;44.350;9.222;2023-04-04T12:40:36;101294.22;;;14.52;23.15
32324;BME280;25666;44.350;9.222;2023-04-04T12:43:03;101275.88;;;14.38;23.50
32324;BME280;25666;44.350;9.222;2023-04-04T12:45:29;101272.97;;;14.51;23.51
32324;BME280;25666;44.350;9.222;2023-04-04T12:47:56;101263.66;;;14.62;23.43
32324;BME280;25666;44.350;9.222;2023-04-04T12:50:25;101249.78;;;14.69;23.23
32324;BME280;25666;44.350;9.222;2023-04-04T12:52:51;101256.53;;;14.49;23.04
32324;BME280;25666;44.350;9.222;2023-04-04T12:55:22;101242.34;;;14.77;23.48
32324;BME280;25666;44.350;9.222;2023-04-04T12:57:48;101229.69;;;14.83;23.72
32324;BME280;25666;44.350;9.222;2023-04-04T13:00:14;101244.13;;;14.85;23.78
32324;BME280;25666;44.350;9.222;2023-04-04T13:02:43;101260.34;;;14.76;23.23
32324;BME280;25666;44.350;9.222;2023-04-04T13:05:12;101250.50;;;14.66;22.91
32324;BME280;25666;44.350;9.222;2023-04-04T13:07:38;101247.75;;;15.05;23.00
32324;BME280;25666;44.350;9.222;2023-04-04T13:10:11;101240.97;;;14.86;22.18
32324;BME280;25666;44.350;9.222;2023-04-04T13:12:52;101237.84;;;14.72;22.00
32324;BME280;25666;44.350;9.222;2023-04-04T13:15:18;101236.50;;;14.66;21.45
32324;BME280;25666;44.350;9.222;2023-04-04T13:17:45;101272.28;;;14.73;22.39
32324;BME280;25666;44.350;9.222;2023-04-04T13:20:12;101234.31;;;14.56;21.20
32324;BME280;25666;44.350;9.222;2023-04-04T13:22:40;101265.28;;;14.47;21.58
32324;BME280;25666;44.350;9.222;2023-04-04T13:25:07;101245.13;;;14.58;21.39
32324;BME280;25666;44.350;9.222;2023-04-04T13:27:34;101239.16;;;14.59;21.40